Glenwood, Washington
Current Conditions -  °F | °C
As of 7:59 AM on Monday 26 Jan 2015 (Local Time) from K4S2 Reporting Station
Haze Haze  
Wind Chill: 41°   Ceiling: 700
Heat Index: 41°   Visibility: 2.5mi
Dew Point: 41°   Wind: 0mph
Humidity: 100%   Direction: NA
Pressure: 30.1"   Gusts: NA
Location:  46.02°N, 121.29°W
Report Text: K4S2 261559Z AUTO 00000KT 2 1/2SM BR OVC007 05/05 A3010 RMK AO2 SLP209 T00500050
Loading
Personal Weather Stations






























Interactive Weather Map New forecast layout! Learn more

10-Day Weather Forecast

Advertisements
Track Severe Weather on mobile